sensor_id;sensor_type;location;lat;lon;timestamp;P1;durP1;ratioP1;P2;durP2;ratioP2
48871;SDS011;36154;51.674;7.824;2024-02-16T00:01:57;0.20;;;0.20;;
48871;SDS011;36154;51.674;7.824;2024-02-16T00:04:23;0.45;;;0.30;;
48871;SDS011;36154;51.674;7.824;2024-02-16T00:06:48;0.30;;;0.30;;
48871;SDS011;36154;51.674;7.824;2024-02-16T00:09:13;0.20;;;0.20;;
48871;SDS011;36154;51.674;7.824;2024-02-16T00:11:39;0.20;;;0.20;;
48871;SDS011;36154;51.674;7.824;2024-02-16T00:14:04;0.30;;;0.30;;
48871;SDS011;36154;51.674;7.824;2024-02-16T00:16:30;0.30;;;0.30;;
48871;SDS011;36154;51.674;7.824;2024-02-16T00:18:55;0.40;;;0.40;;
48871;SDS011;36154;51.674;7.824;2024-02-16T00:21:20;0.30;;;0.20;;
48871;SDS011;36154;51.674;7.824;2024-02-16T00:23:46;0.30;;;0.30;;
48871;SDS011;36154;51.674;7.824;2024-02-16T00:26:11;0.30;;;0.30;;
48871;SDS011;36154;51.674;7.824;2024-02-16T00:28:37;0.30;;;0.30;;
48871;SDS011;36154;51.674;7.824;2024-02-16T00:31:02;0.20;;;0.20;;
48871;SDS011;36154;51.674;7.824;2024-02-16T00:33:27;0.50;;;0.50;;
48871;SDS011;36154;51.674;7.824;2024-02-16T00:35:54;0.20;;;0.20;;
48871;SDS011;36154;51.674;7.824;2024-02-16T00:38:19;0.20;;;0.20;;
48871;SDS011;36154;51.674;7.824;2024-02-16T00:40:44;0.17;;;0.17;;
48871;SDS011;36154;51.674;7.824;2024-02-16T00:43:10;0.20;;;0.20;;
48871;SDS011;36154;51.674;7.824;2024-02-16T00:45:35;0.30;;;0.30;;
48871;SDS011;36154;51.674;7.824;2024-02-16T00:48:01;0.20;;;0.20;;
48871;SDS011;36154;51.674;7.824;2024-02-16T00:50:27;0.30;;;0.20;;
48871;SDS011;36154;51.674;7.824;2024-02-16T00:52:52;0.20;;;0.20;;
48871;SDS011;36154;51.674;7.824;2024-02-16T00:55:18;0.20;;;0.20;;
48871;SDS011;36154;51.674;7.824;2024-02-16T00:57:43;0.20;;;0.20;;
48871;SDS011;36154;51.674;7.824;2024-02-16T01:00:08;0.20;;;0.20;;
48871;SDS011;36154;51.674;7.824;2024-02-16T01:02:34;0.30;;;0.30;;
48871;SDS011;36154;51.674;7.824;2024-02-16T01:04:59;0.40;;;0.40;;
48871;SDS011;36154;51.674;7.824;2024-02-16T01:07:27;0.20;;;0.20;;
48871;SDS011;36154;51.674;7.824;2024-02-16T01:09:52;0.20;;;0.20;;
48871;SDS011;36154;51.674;7.824;2024-02-16T01:12:17;0.20;;;0.20;;
48871;SDS011;36154;51.674;7.824;2024-02-16T01:14:43;0.20;;;0.20;;
48871;SDS011;36154;51.674;7.824;2024-02-16T01:17:08;1.10;;;0.20;;
48871;SDS011;36154;51.674;7.824;2024-02-16T01:19:34;1.30;;;0.28;;
48871;SDS011;36154;51.674;7.824;2024-02-16T01:21:59;0.20;;;0.20;;
48871;SDS011;36154;51.674;7.824;2024-02-16T01:24:25;0.25;;;0.20;;
48871;SDS011;36154;51.674;7.824;2024-02-16T01:26:51;0.10;;;0.10;;
48871;SDS011;36154;51.674;7.824;2024-02-16T01:29:17;0.30;;;0.30;;
48871;SDS011;36154;51.674;7.824;2024-02-16T01:31:42;0.20;;;0.20;;
48871;SDS011;36154;51.674;7.824;2024-02-16T01:34:07;0.20;;;0.20;;
48871;SDS011;36154;51.674;7.824;2024-02-16T01:36:33;0.30;;;0.30;;
48871;SDS011;36154;51.674;7.824;2024-02-16T01:38:58;0.20;;;0.20;;
48871;SDS011;36154;51.674;7.824;2024-02-16T01:41:24;0.30;;;0.30;;
48871;SDS011;36154;51.674;7.824;2024-02-16T01:43:51;0.20;;;0.20;;
48871;SDS011;36154;51.674;7.824;2024-02-16T01:46:18;0.20;;;0.20;;
48871;SDS011;36154;51.674;7.824;2024-02-16T01:48:44;0.20;;;0.20;;
48871;SDS011;36154;51.674;7.824;2024-02-16T01:51:09;0.10;;;0.10;;
48871;SDS011;36154;51.674;7.824;2024-02-16T01:53:35;0.20;;;0.20;;
48871;SDS011;36154;51.674;7.824;2024-02-16T01:56:02;0.20;;;0.20;;
48871;SDS011;36154;51.674;7.824;2024-02-16T01:58:28;0.20;;;0.20;;
48871;SDS011;36154;51.674;7.824;2024-02-16T02:00:53;0.20;;;0.20;;
48871;SDS011;36154;51.674;7.824;2024-02-16T02:03:19;0.20;;;0.20;;
48871;SDS011;36154;51.674;7.824;2024-02-16T02:05:45;0.20;;;0.20;;
48871;SDS011;36154;51.674;7.824;2024-02-16T02:08:11;0.40;;;0.20;;
48871;SDS011;36154;51.674;7.824;2024-02-16T02:10:37;0.22;;;0.22;;
48871;SDS011;36154;51.674;7.824;2024-02-16T02:13:02;0.10;;;0.10;;
48871;SDS011;36154;51.674;7.824;2024-02-16T02:15:27;0.30;;;0.30;;
48871;SDS011;36154;51.674;7.824;2024-02-16T02:17:53;0.28;;;0.28;;
48871;SDS011;36154;51.674;7.824;2024-02-16T02:20:18;0.82;;;0.20;;
48871;SDS011;36154;51.674;7.824;2024-02-16T02:22:43;0.25;;;0.25;;
48871;SDS011;36154;51.674;7.824;2024-02-16T02:28:30;0.20;;;0.20;;
48871;SDS011;36154;51.674;7.824;2024-02-16T02:30:55;0.20;;;0.20;;
48871;SDS011;36154;51.674;7.824;2024-02-16T02:33:20;0.10;;;0.10;;
48871;SDS011;36154;51.674;7.824;2024-02-16T02:35:46;0.20;;;0.20;;
48871;SDS011;36154;51.674;7.824;2024-02-16T02:38:12;0.20;;;0.20;;
48871;SDS011;36154;51.674;7.824;2024-02-16T02:40:37;0.17;;;0.17;;
48871;SDS011;36154;51.674;7.824;2024-02-16T02:43:03;0.10;;;0.10;;
48871;SDS011;36154;51.674;7.824;2024-02-16T02:45:28;0.10;;;0.10;;
48871;SDS011;36154;51.674;7.824;2024-02-16T02:47:54;0.15;;;0.15;;
48871;SDS011;36154;51.674;7.824;2024-02-16T02:50:19;0.30;;;0.20;;
48871;SDS011;36154;51.674;7.824;2024-02-16T02:52:44;0.20;;;0.20;;
48871;SDS011;36154;51.674;7.824;2024-02-16T02:55:10;0.32;;;0.22;;
48871;SDS011;36154;51.674;7.824;2024-02-16T02:57:36;0.20;;;0.20;;
48871;SDS011;36154;51.674;7.824;2024-02-16T03:00:05;0.20;;;0.20;;
48871;SDS011;36154;51.674;7.824;2024-02-16T03:02:31;0.10;;;0.10;;
48871;SDS011;36154;51.674;7.824;2024-02-16T03:04:57;0.10;;;0.10;;
48871;SDS011;36154;51.674;7.824;2024-02-16T03:07:22;0.10;;;0.10;;
48871;SDS011;36154;51.674;7.824;2024-02-16T03:09:47;0.10;;;0.10;;
48871;SDS011;36154;51.674;7.824;2024-02-16T03:12:12;0.20;;;0.20;;
48871;SDS011;36154;51.674;7.824;2024-02-16T03:14:38;0.20;;;0.20;;
48871;SDS011;36154;51.674;7.824;2024-02-16T03:17:03;0.20;;;0.20;;
48871;SDS011;36154;51.674;7.824;2024-02-16T03:19:28;0.20;;;0.20;;
48871;SDS011;36154;51.674;7.824;2024-02-16T03:21:54;0.20;;;0.20;;
48871;SDS011;36154;51.674;7.824;2024-02-16T03:24:19;0.20;;;0.20;;
48871;SDS011;36154;51.674;7.824;2024-02-16T03:26:45;0.20;;;0.20;;
48871;SDS011;36154;51.674;7.824;2024-02-16T03:29:10;0.10;;;0.10;;
48871;SDS011;36154;51.674;7.824;2024-02-16T03:31:35;0.20;;;0.20;;
48871;SDS011;36154;51.674;7.824;2024-02-16T03:34:00;0.20;;;0.20;;
48871;SDS011;36154;51.674;7.824;2024-02-16T03:36:26;0.10;;;0.10;;
48871;SDS011;36154;51.674;7.824;2024-02-16T03:38:51;0.10;;;0.10;;
48871;SDS011;36154;51.674;7.824;2024-02-16T03:41:21;0.15;;;0.15;;
48871;SDS011;36154;51.674;7.824;2024-02-16T03:43:48;0.10;;;0.10;;
48871;SDS011;36154;51.674;7.824;2024-02-16T03:46:13;0.20;;;0.20;;
48871;SDS011;36154;51.674;7.824;2024-02-16T03:48:39;0.20;;;0.20;;
48871;SDS011;36154;51.674;7.824;2024-02-16T03:51:05;0.22;;;0.20;;
48871;SDS011;36154;51.674;7.824;2024-02-16T03:53:30;0.10;;;0.10;;
48871;SDS011;36154;51.674;7.824;2024-02-16T03:55:55;0.20;;;0.20;;
48871;SDS011;36154;51.674;7.824;2024-02-16T03:58:21;0.20;;;0.20;;
48871;SDS011;36154;51.674;7.824;2024-02-16T04:00:47;0.20;;;0.20;;
48871;SDS011;36154;51.674;7.824;2024-02-16T04:03:13;0.10;;;0.10;;
48871;SDS011;36154;51.674;7.824;2024-02-16T04:05:39;0.10;;;0.10;;
48871;SDS011;36154;51.674;7.824;2024-02-16T04:08:05;0.10;;;0.10;;
48871;SDS011;36154;51.674;7.824;2024-02-16T04:10:31;0.10;;;0.10;;
48871;SDS011;36154;51.674;7.824;2024-02-16T04:12:56;0.10;;;0.10;;
48871;SDS011;36154;51.674;7.824;2024-02-16T04:15:22;0.20;;;0.20;;
48871;SDS011;36154;51.674;7.824;2024-02-16T04:17:47;0.20;;;0.20;;
48871;SDS011;36154;51.674;7.824;2024-02-16T04:20:15;0.20;;;0.20;;
48871;SDS011;36154;51.674;7.824;2024-02-16T04:22:41;0.20;;;0.20;;
48871;SDS011;36154;51.674;7.824;2024-02-16T04:25:06;0.10;;;0.10;;
48871;SDS011;36154;51.674;7.824;2024-02-16T04:27:31;0.10;;;0.10;;
48871;SDS011;36154;51.674;7.824;2024-02-16T04:29:57;0.10;;;0.10;;
48871;SDS011;36154;51.674;7.824;2024-02-16T04:32:22;0.10;;;0.10;;
48871;SDS011;36154;51.674;7.824;2024-02-16T04:34:50;0.20;;;0.20;;
48871;SDS011;36154;51.674;7.824;2024-02-16T04:37:17;0.13;;;0.13;;
48871;SDS011;36154;51.674;7.824;2024-02-16T04:39:43;0.20;;;0.20;;
48871;SDS011;36154;51.674;7.824;2024-02-16T04:42:09;0.10;;;0.10;;
48871;SDS011;36154;51.674;7.824;2024-02-16T04:44:36;0.10;;;0.10;;
48871;SDS011;36154;51.674;7.824;2024-02-16T04:47:03;0.15;;;0.13;;
48871;SDS011;36154;51.674;7.824;2024-02-16T04:49:28;0.20;;;0.20;;
48871;SDS011;36154;51.674;7.824;2024-02-16T04:51:54;0.80;;;0.20;;
48871;SDS011;36154;51.674;7.824;2024-02-16T04:54:19;0.20;;;0.20;;
48871;SDS011;36154;51.674;7.824;2024-02-16T04:56:44;0.20;;;0.20;;
48871;SDS011;36154;51.674;7.824;2024-02-16T04:59:09;0.20;;;0.20;;
48871;SDS011;36154;51.674;7.824;2024-02-16T05:01:35;0.20;;;0.20;;
48871;SDS011;36154;51.674;7.824;2024-02-16T05:04:00;0.10;;;0.10;;
48871;SDS011;36154;51.674;7.824;2024-02-16T05:06:27;0.20;;;0.10;;
48871;SDS011;36154;51.674;7.824;2024-02-16T05:08:52;0.20;;;0.20;;
48871;SDS011;36154;51.674;7.824;2024-02-16T05:11:17;0.20;;;0.10;;
48871;SDS011;36154;51.674;7.824;2024-02-16T05:13:43;0.20;;;0.20;;
48871;SDS011;36154;51.674;7.824;2024-02-16T05:16:09;0.20;;;0.20;;
48871;SDS011;36154;51.674;7.824;2024-02-16T05:18:35;0.20;;;0.20;;
48871;SDS011;36154;51.674;7.824;2024-02-16T05:21:00;0.10;;;0.10;;
48871;SDS011;36154;51.674;7.824;2024-02-16T05:23:25;0.10;;;0.10;;
48871;SDS011;36154;51.674;7.824;2024-02-16T05:25:50;0.10;;;0.10;;
48871;SDS011;36154;51.674;7.824;2024-02-16T05:28:16;0.20;;;0.20;;
48871;SDS011;36154;51.674;7.824;2024-02-16T05:30:42;0.10;;;0.10;;
48871;SDS011;36154;51.674;7.824;2024-02-16T05:33:07;0.10;;;0.10;;
48871;SDS011;36154;51.674;7.824;2024-02-16T05:35:32;0.25;;;0.20;;
48871;SDS011;36154;51.674;7.824;2024-02-16T05:37:58;0.10;;;0.10;;
48871;SDS011;36154;51.674;7.824;2024-02-16T05:40:31;0.20;;;0.20;;
48871;SDS011;36154;51.674;7.824;2024-02-16T05:43:08;0.10;;;0.10;;
48871;SDS011;36154;51.674;7.824;2024-02-16T05:45:34;0.10;;;0.10;;
48871;SDS011;36154;51.674;7.824;2024-02-16T05:48:00;0.10;;;0.10;;
48871;SDS011;36154;51.674;7.824;2024-02-16T05:50:25;0.17;;;0.17;;
48871;SDS011;36154;51.674;7.824;2024-02-16T05:52:50;0.20;;;0.20;;
48871;SDS011;36154;51.674;7.824;2024-02-16T05:55:16;0.20;;;0.20;;
48871;SDS011;36154;51.674;7.824;2024-02-16T05:57:43;0.20;;;0.17;;
48871;SDS011;36154;51.674;7.824;2024-02-16T06:00:09;0.10;;;0.10;;
48871;SDS011;36154;51.674;7.824;2024-02-16T06:02:35;0.10;;;0.10;;
48871;SDS011;36154;51.674;7.824;2024-02-16T06:05:01;0.20;;;0.20;;
48871;SDS011;36154;51.674;7.824;2024-02-16T06:07:28;0.20;;;0.20;;
48871;SDS011;36154;51.674;7.824;2024-02-16T06:09:54;0.10;;;0.10;;
48871;SDS011;36154;51.674;7.824;2024-02-16T06:12:20;0.20;;;0.20;;
48871;SDS011;36154;51.674;7.824;2024-02-16T06:14:46;0.22;;;0.22;;
48871;SDS011;36154;51.674;7.824;2024-02-16T06:17:16;0.20;;;0.20;;
48871;SDS011;36154;51.674;7.824;2024-02-16T06:19:42;0.10;;;0.10;;
48871;SDS011;36154;51.674;7.824;2024-02-16T06:22:07;0.20;;;0.20;;
48871;SDS011;36154;51.674;7.824;2024-02-16T06:24:36;0.20;;;0.20;;
48871;SDS011;36154;51.674;7.824;2024-02-16T06:27:01;0.20;;;0.20;;
48871;SDS011;36154;51.674;7.824;2024-02-16T06:29:28;0.17;;;0.17;;
48871;SDS011;36154;51.674;7.824;2024-02-16T06:31:55;0.20;;;0.20;;
48871;SDS011;36154;51.674;7.824;2024-02-16T06:34:20;0.10;;;0.10;;
48871;SDS011;36154;51.674;7.824;2024-02-16T06:36:46;0.10;;;0.10;;
48871;SDS011;36154;51.674;7.824;2024-02-16T06:39:11;0.28;;;0.20;;
48871;SDS011;36154;51.674;7.824;2024-02-16T06:41:42;0.10;;;0.10;;
48871;SDS011;36154;51.674;7.824;2024-02-16T06:44:09;0.15;;;0.15;;
48871;SDS011;36154;51.674;7.824;2024-02-16T06:46:34;0.20;;;0.20;;
48871;SDS011;36154;51.674;7.824;2024-02-16T06:48:59;0.17;;;0.17;;
48871;SDS011;36154;51.674;7.824;2024-02-16T06:51:25;0.10;;;0.10;;
48871;SDS011;36154;51.674;7.824;2024-02-16T06:53:51;0.20;;;0.20;;
48871;SDS011;36154;51.674;7.824;2024-02-16T06:56:17;0.20;;;0.20;;
48871;SDS011;36154;51.674;7.824;2024-02-16T06:58:43;0.20;;;0.20;;
48871;SDS011;36154;51.674;7.824;2024-02-16T07:01:09;0.20;;;0.20;;
48871;SDS011;36154;51.674;7.824;2024-02-16T07:03:34;0.20;;;0.20;;
48871;SDS011;36154;51.674;7.824;2024-02-16T07:06:01;0.20;;;0.20;;
48871;SDS011;36154;51.674;7.824;2024-02-16T07:08:28;0.10;;;0.10;;
48871;SDS011;36154;51.674;7.824;2024-02-16T07:10:53;0.28;;;0.28;;
48871;SDS011;36154;51.674;7.824;2024-02-16T07:13:19;0.20;;;0.20;;
48871;SDS011;36154;51.674;7.824;2024-02-16T07:15:44;0.93;;;0.30;;
48871;SDS011;36154;51.674;7.824;2024-02-16T07:18:11;0.20;;;0.20;;
48871;SDS011;36154;51.674;7.824;2024-02-16T07:20:36;0.30;;;0.30;;
48871;SDS011;36154;51.674;7.824;2024-02-16T07:23:02;0.20;;;0.20;;
48871;SDS011;36154;51.674;7.824;2024-02-16T07:25:28;1.55;;;0.30;;
48871;SDS011;36154;51.674;7.824;2024-02-16T07:27:53;0.82;;;0.82;;
48871;SDS011;36154;51.674;7.824;2024-02-16T07:30:18;1.42;;;1.42;;
48871;SDS011;36154;51.674;7.824;2024-02-16T07:32:47;1.70;;;1.70;;
48871;SDS011;36154;51.674;7.824;2024-02-16T07:35:17;1.60;;;1.60;;
48871;SDS011;36154;51.674;7.824;2024-02-16T07:37:46;1.33;;;1.33;;
48871;SDS011;36154;51.674;7.824;2024-02-16T07:40:11;1.58;;;1.58;;
48871;SDS011;36154;51.674;7.824;2024-02-16T07:42:40;1.20;;;1.20;;
48871;SDS011;36154;51.674;7.824;2024-02-16T07:45:07;1.40;;;1.40;;
48871;SDS011;36154;51.674;7.824;2024-02-16T07:47:34;1.48;;;1.48;;
48871;SDS011;36154;51.674;7.824;2024-02-16T07:50:00;1.30;;;1.30;;
48871;SDS011;36154;51.674;7.824;2024-02-16T07:52:25;1.55;;;1.45;;
48871;SDS011;36154;51.674;7.824;2024-02-16T07:54:51;3.65;;;1.33;;
48871;SDS011;36154;51.674;7.824;2024-02-16T07:57:16;3.25;;;1.52;;
48871;SDS011;36154;51.674;7.824;2024-02-16T07:59:42;3.63;;;1.35;;
48871;SDS011;36154;51.674;7.824;2024-02-16T08:02:08;1.70;;;1.60;;
48871;SDS011;36154;51.674;7.824;2024-02-16T08:04:34;1.60;;;1.50;;
48871;SDS011;36154;51.674;7.824;2024-02-16T08:07:00;1.42;;;1.20;;
48871;SDS011;36154;51.674;7.824;2024-02-16T08:09:26;1.30;;;1.30;;
48871;SDS011;36154;51.674;7.824;2024-02-16T08:11:51;1.67;;;1.30;;
48871;SDS011;36154;51.674;7.824;2024-02-16T08:14:17;1.30;;;1.20;;
48871;SDS011;36154;51.674;7.824;2024-02-16T08:16:42;3.00;;;1.10;;
48871;SDS011;36154;51.674;7.824;2024-02-16T08:19:07;1.20;;;1.10;;
48871;SDS011;36154;51.674;7.824;2024-02-16T08:21:33;2.35;;;1.23;;
48871;SDS011;36154;51.674;7.824;2024-02-16T08:23:58;1.30;;;1.20;;
48871;SDS011;36154;51.674;7.824;2024-02-16T08:26:23;1.20;;;0.80;;
48871;SDS011;36154;51.674;7.824;2024-02-16T08:28:48;1.20;;;1.02;;
48871;SDS011;36154;51.674;7.824;2024-02-16T08:31:17;1.02;;;0.77;;
48871;SDS011;36154;51.674;7.824;2024-02-16T08:33:43;1.65;;;0.70;;
48871;SDS011;36154;51.674;7.824;2024-02-16T08:36:10;2.15;;;0.68;;
48871;SDS011;36154;51.674;7.824;2024-02-16T08:38:36;0.68;;;0.68;;
48871;SDS011;36154;51.674;7.824;2024-02-16T08:41:02;1.10;;;0.95;;
48871;SDS011;36154;51.674;7.824;2024-02-16T08:43:28;2.88;;;0.80;;
48871;SDS011;36154;51.674;7.824;2024-02-16T08:45:53;1.80;;;0.80;;
48871;SDS011;36154;51.674;7.824;2024-02-16T08:48:18;1.23;;;0.68;;
48871;SDS011;36154;51.674;7.824;2024-02-16T08:50:44;0.80;;;0.65;;
48871;SDS011;36154;51.674;7.824;2024-02-16T08:53:09;2.90;;;0.70;;
48871;SDS011;36154;51.674;7.824;2024-02-16T08:55:35;0.77;;;0.57;;
48871;SDS011;36154;51.674;7.824;2024-02-16T08:58:00;1.58;;;0.70;;
48871;SDS011;36154;51.674;7.824;2024-02-16T09:00:26;1.63;;;0.75;;
48871;SDS011;36154;51.674;7.824;2024-02-16T09:02:52;1.00;;;0.90;;
48871;SDS011;36154;51.674;7.824;2024-02-16T09:05:18;1.05;;;0.70;;
48871;SDS011;36154;51.674;7.824;2024-02-16T09:07:44;1.08;;;0.52;;
48871;SDS011;36154;51.674;7.824;2024-02-16T09:10:09;0.82;;;0.50;;
48871;SDS011;36154;51.674;7.824;2024-02-16T09:12:35;1.75;;;0.50;;
48871;SDS011;36154;51.674;7.824;2024-02-16T09:15:00;0.52;;;0.50;;
48871;SDS011;36154;51.674;7.824;2024-02-16T09:17:25;0.50;;;0.50;;
48871;SDS011;36154;51.674;7.824;2024-02-16T09:19:51;0.60;;;0.50;;
48871;SDS011;36154;51.674;7.824;2024-02-16T09:22:16;0.82;;;0.50;;
48871;SDS011;36154;51.674;7.824;2024-02-16T09:24:42;1.30;;;0.40;;
48871;SDS011;36154;51.674;7.824;2024-02-16T09:27:11;0.60;;;0.50;;
48871;SDS011;36154;51.674;7.824;2024-02-16T09:29:37;0.47;;;0.47;;
48871;SDS011;36154;51.674;7.824;2024-02-16T09:32:03;3.05;;;0.50;;
48871;SDS011;36154;51.674;7.824;2024-02-16T09:34:28;0.40;;;0.40;;
48871;SDS011;36154;51.674;7.824;2024-02-16T09:36:54;0.80;;;0.60;;
48871;SDS011;36154;51.674;7.824;2024-02-16T09:39:19;0.55;;;0.35;;
48871;SDS011;36154;51.674;7.824;2024-02-16T09:41:44;0.55;;;0.30;;
48871;SDS011;36154;51.674;7.824;2024-02-16T09:44:15;0.40;;;0.40;;
48871;SDS011;36154;51.674;7.824;2024-02-16T09:46:41;0.50;;;0.50;;
48871;SDS011;36154;51.674;7.824;2024-02-16T09:49:07;0.30;;;0.30;;
48871;SDS011;36154;51.674;7.824;2024-02-16T09:51:35;1.05;;;0.30;;
48871;SDS011;36154;51.674;7.824;2024-02-16T09:54:01;0.80;;;0.30;;
48871;SDS011;36154;51.674;7.824;2024-02-16T09:56:27;0.57;;;0.50;;
48871;SDS011;36154;51.674;7.824;2024-02-16T09:58:53;0.50;;;0.50;;
48871;SDS011;36154;51.674;7.824;2024-02-16T10:01:20;0.63;;;0.30;;
48871;SDS011;36154;51.674;7.824;2024-02-16T10:03:46;0.63;;;0.38;;
48871;SDS011;36154;51.674;7.824;2024-02-16T10:06:12;0.20;;;0.20;;
48871;SDS011;36154;51.674;7.824;2024-02-16T10:08:53;1.05;;;0.40;;
48871;SDS011;36154;51.674;7.824;2024-02-16T10:11:22;0.75;;;0.50;;
48871;SDS011;36154;51.674;7.824;2024-02-16T10:16:24;2.78;;;0.55;;
48871;SDS011;36154;51.674;7.824;2024-02-16T10:18:50;1.75;;;0.35;;
48871;SDS011;36154;51.674;7.824;2024-02-16T10:21:25;0.77;;;0.50;;
48871;SDS011;36154;51.674;7.824;2024-02-16T10:24:11;3.20;;;0.40;;
48871;SDS011;36154;51.674;7.824;2024-02-16T10:26:42;1.95;;;0.30;;
48871;SDS011;36154;51.674;7.824;2024-02-16T10:29:08;0.20;;;0.20;;
48871;SDS011;36154;51.674;7.824;2024-02-16T10:31:35;0.60;;;0.30;;
48871;SDS011;36154;51.674;7.824;2024-02-16T10:34:01;1.67;;;0.50;;
48871;SDS011;36154;51.674;7.824;2024-02-16T10:36:31;0.55;;;0.40;;
48871;SDS011;36154;51.674;7.824;2024-02-16T10:38:57;0.65;;;0.20;;
48871;SDS011;36154;51.674;7.824;2024-02-16T10:41:25;0.52;;;0.30;;
48871;SDS011;36154;51.674;7.824;2024-02-16T10:43:54;0.35;;;0.35;;
48871;SDS011;36154;51.674;7.824;2024-02-16T10:46:21;0.30;;;0.28;;
48871;SDS011;36154;51.674;7.824;2024-02-16T10:48:47;1.80;;;0.30;;
48871;SDS011;36154;51.674;7.824;2024-02-16T10:51:13;0.52;;;0.30;;
48871;SDS011;36154;51.674;7.824;2024-02-16T10:53:42;0.80;;;0.32;;
48871;SDS011;36154;51.674;7.824;2024-02-16T10:56:08;0.57;;;0.20;;
48871;SDS011;36154;51.674;7.824;2024-02-16T10:58:33;0.40;;;0.32;;
48871;SDS011;36154;51.674;7.824;2024-02-16T11:01:07;0.65;;;0.38;;
48871;SDS011;36154;51.674;7.824;2024-02-16T11:03:33;0.30;;;0.30;;
48871;SDS011;36154;51.674;7.824;2024-02-16T11:06:02;0.47;;;0.30;;
48871;SDS011;36154;51.674;7.824;2024-02-16T11:08:41;0.38;;;0.30;;
48871;SDS011;36154;51.674;7.824;2024-02-16T11:11:06;0.60;;;0.40;;
48871;SDS011;36154;51.674;7.824;2024-02-16T11:13:35;0.30;;;0.30;;
48871;SDS011;36154;51.674;7.824;2024-02-16T11:16:02;0.75;;;0.40;;
48871;SDS011;36154;51.674;7.824;2024-02-16T11:18:38;0.80;;;0.50;;
48871;SDS011;36154;51.674;7.824;2024-02-16T11:21:11;0.55;;;0.40;;
48871;SDS011;36154;51.674;7.824;2024-02-16T11:23:37;0.30;;;0.30;;
48871;SDS011;36154;51.674;7.824;2024-02-16T11:26:02;0.30;;;0.30;;
48871;SDS011;36154;51.674;7.824;2024-02-16T11:28:32;2.55;;;0.30;;
48871;SDS011;36154;51.674;7.824;2024-02-16T11:30:58;0.90;;;0.30;;
48871;SDS011;36154;51.674;7.824;2024-02-16T11:33:23;0.93;;;0.30;;
48871;SDS011;36154;51.674;7.824;2024-02-16T11:35:52;1.13;;;0.30;;
48871;SDS011;36154;51.674;7.824;2024-02-16T11:38:19;0.38;;;0.38;;
48871;SDS011;36154;51.674;7.824;2024-02-16T11:40:52;1.65;;;0.40;;
48871;SDS011;36154;51.674;7.824;2024-02-16T11:43:25;2.38;;;0.30;;
48871;SDS011;36154;51.674;7.824;2024-02-16T11:45:51;0.95;;;0.40;;
48871;SDS011;36154;51.674;7.824;2024-02-16T11:48:23;1.13;;;0.32;;
48871;SDS011;36154;51.674;7.824;2024-02-16T11:50:59;0.32;;;0.30;;
48871;SDS011;36154;51.674;7.824;2024-02-16T11:53:26;0.98;;;0.38;;
48871;SDS011;36154;51.674;7.824;2024-02-16T11:55:52;0.63;;;0.40;;
48871;SDS011;36154;51.674;7.824;2024-02-16T11:58:17;2.13;;;0.40;;
48871;SDS011;36154;51.674;7.824;2024-02-16T12:00:44;1.27;;;0.30;;
48871;SDS011;36154;51.674;7.824;2024-02-16T12:03:10;0.75;;;0.40;;
48871;SDS011;36154;51.674;7.824;2024-02-16T12:05:35;0.30;;;0.22;;
48871;SDS011;36154;51.674;7.824;2024-02-16T12:08:00;0.30;;;0.30;;
48871;SDS011;36154;51.674;7.824;2024-02-16T12:10:26;0.63;;;0.30;;
48871;SDS011;36154;51.674;7.824;2024-02-16T12:12:52;0.43;;;0.30;;
48871;SDS011;36154;51.674;7.824;2024-02-16T12:15:17;2.47;;;0.30;;
48871;SDS011;36154;51.674;7.824;2024-02-16T12:17:44;2.83;;;0.40;;
48871;SDS011;36154;51.674;7.824;2024-02-16T12:20:11;0.55;;;0.55;;
48871;SDS011;36154;51.674;7.824;2024-02-16T12:22:39;1.23;;;0.50;;
48871;SDS011;36154;51.674;7.824;2024-02-16T12:25:05;1.17;;;0.57;;
48871;SDS011;36154;51.674;7.824;2024-02-16T12:27:30;2.95;;;0.77;;
48871;SDS011;36154;51.674;7.824;2024-02-16T12:29:55;2.53;;;1.10;;
48871;SDS011;36154;51.674;7.824;2024-02-16T12:32:21;2.40;;;1.00;;
48871;SDS011;36154;51.674;7.824;2024-02-16T12:34:46;1.17;;;0.70;;
48871;SDS011;36154;51.674;7.824;2024-02-16T12:37:12;2.30;;;1.00;;
48871;SDS011;36154;51.674;7.824;2024-02-16T12:39:38;1.58;;;1.02;;
48871;SDS011;36154;51.674;7.824;2024-02-16T12:42:04;1.95;;;0.75;;
48871;SDS011;36154;51.674;7.824;2024-02-16T12:44:30;2.65;;;0.90;;
48871;SDS011;36154;51.674;7.824;2024-02-16T12:46:55;1.48;;;1.00;;
48871;SDS011;36154;51.674;7.824;2024-02-16T12:49:21;1.73;;;0.90;;
48871;SDS011;36154;51.674;7.824;2024-02-16T12:51:50;3.88;;;0.98;;
48871;SDS011;36154;51.674;7.824;2024-02-16T12:54:16;1.60;;;0.73;;
48871;SDS011;36154;51.674;7.824;2024-02-16T12:56:44;1.52;;;0.85;;
48871;SDS011;36154;51.674;7.824;2024-02-16T12:59:13;1.50;;;0.88;;
48871;SDS011;36154;51.674;7.824;2024-02-16T13:01:38;2.15;;;0.88;;
48871;SDS011;36154;51.674;7.824;2024-02-16T13:04:04;2.00;;;0.80;;
48871;SDS011;36154;51.674;7.824;2024-02-16T13:06:30;1.88;;;0.63;;
48871;SDS011;36154;51.674;7.824;2024-02-16T13:08:55;2.30;;;1.02;;
48871;SDS011;36154;51.674;7.824;2024-02-16T13:11:21;2.47;;;0.90;;
48871;SDS011;36154;51.674;7.824;2024-02-16T13:13:46;1.45;;;0.88;;
48871;SDS011;36154;51.674;7.824;2024-02-16T13:16:11;2.55;;;1.08;;
48871;SDS011;36154;51.674;7.824;2024-02-16T13:18:36;1.48;;;0.63;;
48871;SDS011;36154;51.674;7.824;2024-02-16T13:21:02;1.98;;;0.98;;
48871;SDS011;36154;51.674;7.824;2024-02-16T13:23:27;1.10;;;0.80;;
48871;SDS011;36154;51.674;7.824;2024-02-16T13:25:54;1.30;;;0.73;;
48871;SDS011;36154;51.674;7.824;2024-02-16T13:28:19;2.47;;;0.82;;
48871;SDS011;36154;51.674;7.824;2024-02-16T13:30:45;1.15;;;0.77;;
48871;SDS011;36154;51.674;7.824;2024-02-16T13:33:10;2.42;;;0.77;;
48871;SDS011;36154;51.674;7.824;2024-02-16T13:35:36;1.40;;;0.80;;
48871;SDS011;36154;51.674;7.824;2024-02-16T13:38:01;0.82;;;0.50;;
48871;SDS011;36154;51.674;7.824;2024-02-16T13:40:27;0.85;;;0.50;;
48871;SDS011;36154;51.674;7.824;2024-02-16T13:42:52;1.25;;;0.80;;
48871;SDS011;36154;51.674;7.824;2024-02-16T13:45:24;0.82;;;0.70;;
48871;SDS011;36154;51.674;7.824;2024-02-16T13:47:50;1.50;;;0.70;;
48871;SDS011;36154;51.674;7.824;2024-02-16T13:50:16;0.88;;;0.40;;
48871;SDS011;36154;51.674;7.824;2024-02-16T13:52:41;1.03;;;0.60;;
48871;SDS011;36154;51.674;7.824;2024-02-16T13:55:06;0.63;;;0.40;;
48871;SDS011;36154;51.674;7.824;2024-02-16T13:57:33;0.35;;;0.30;;
48871;SDS011;36154;51.674;7.824;2024-02-16T13:59:58;0.32;;;0.32;;
48871;SDS011;36154;51.674;7.824;2024-02-16T14:02:23;0.60;;;0.30;;
48871;SDS011;36154;51.674;7.824;2024-02-16T14:04:49;0.22;;;0.15;;
48871;SDS011;36154;51.674;7.824;2024-02-16T14:07:16;0.30;;;0.20;;
48871;SDS011;36154;51.674;7.824;2024-02-16T14:09:41;0.17;;;0.17;;
48871;SDS011;36154;51.674;7.824;2024-02-16T14:12:07;0.30;;;0.30;;
48871;SDS011;36154;51.674;7.824;2024-02-16T14:14:32;0.32;;;0.20;;
48871;SDS011;36154;51.674;7.824;2024-02-16T14:16:57;3.13;;;0.45;;
48871;SDS011;36154;51.674;7.824;2024-02-16T14:19:23;0.20;;;0.20;;
48871;SDS011;36154;51.674;7.824;2024-02-16T14:21:48;2.67;;;2.00;;
48871;SDS011;36154;51.674;7.824;2024-02-16T14:24:13;4.80;;;3.40;;
48871;SDS011;36154;51.674;7.824;2024-02-16T14:26:39;6.78;;;4.50;;
48871;SDS011;36154;51.674;7.824;2024-02-16T14:29:05;5.95;;;4.35;;
48871;SDS011;36154;51.674;7.824;2024-02-16T14:31:31;6.32;;;4.53;;
48871;SDS011;36154;51.674;7.824;2024-02-16T14:33:58;7.50;;;4.32;;
48871;SDS011;36154;51.674;7.824;2024-02-16T14:36:23;9.20;;;4.15;;
48871;SDS011;36154;51.674;7.824;2024-02-16T14:38:48;7.25;;;3.80;;
48871;SDS011;36154;51.674;7.824;2024-02-16T14:41:14;8.95;;;3.60;;
48871;SDS011;36154;51.674;7.824;2024-02-16T14:43:41;6.57;;;3.25;;
48871;SDS011;36154;51.674;7.824;2024-02-16T14:46:07;3.58;;;3.25;;
48871;SDS011;36154;51.674;7.824;2024-02-16T14:48:33;6.88;;;3.22;;